createdAt,value
2022-08-22T00:03:32.901Z,16.24
2022-08-22T00:18:29.129Z,15.83
2022-08-22T00:33:25.444Z,15.62
2022-08-22T00:48:21.472Z,15.12
2022-08-22T01:03:17.731Z,15.12
2022-08-22T01:18:14.001Z,15.35
2022-08-22T01:33:09.557Z,15.16
2022-08-22T01:48:05.457Z,15.08
2022-08-22T02:03:01.551Z,15.02
2022-08-22T02:17:57.986Z,14.61
2022-08-22T02:32:53.968Z,14.83
2022-08-22T02:47:50.001Z,14.54
2022-08-22T03:02:46.183Z,14.16
2022-08-22T03:17:42.445Z,14.14
2022-08-22T03:32:38.846Z,13.74
2022-08-22T03:47:35.081Z,13.4
2022-08-22T04:02:42.740Z,13.39
2022-08-22T04:17:27.004Z,13.16
2022-08-22T04:32:22.961Z,12.88
2022-08-22T04:47:19.041Z,12.89
2022-08-22T05:02:15.194Z,13.01
2022-08-22T05:17:11.326Z,13.11
2022-08-22T05:32:07.534Z,13.45
2022-08-22T05:47:03.900Z,13.8
2022-08-22T06:02:00.311Z,14.66
2022-08-22T06:16:56.679Z,15.33
2022-08-22T06:31:53.402Z,15.96
2022-08-22T06:46:50.072Z,16.52
2022-08-22T07:01:46.614Z,17.6
2022-08-22T07:16:42.864Z,18.3
2022-08-22T07:31:39.094Z,18.33
2022-08-22T07:46:35.626Z,19.08
2022-08-22T08:01:32.491Z,19.96
2022-08-22T08:16:29.469Z,23.69
2022-08-22T08:31:26.709Z,21.46
2022-08-22T08:46:23.079Z,22.47
2022-08-22T09:01:19.822Z,23.79
2022-08-22T09:16:16.665Z,25.51
2022-08-22T09:31:16.749Z,26.55
2022-08-22T09:46:11.505Z,26.69
2022-08-22T10:01:08.897Z,27.04
2022-08-22T10:16:06.624Z,26.19
2022-08-22T10:31:04.009Z,30.58
2022-08-22T10:46:01.699Z,27.33
2022-08-22T11:00:57.973Z,28.07
2022-08-22T11:15:54.914Z,29.03
2022-08-22T11:30:52.077Z,29.18
2022-08-22T11:45:48.909Z,27.65
2022-08-22T12:00:45.553Z,30.27
2022-08-22T12:15:42.137Z,31.02
2022-08-22T12:45:36.056Z,30.57
2022-08-22T13:00:32.942Z,29.75
2022-08-22T13:15:28.298Z,29.91
2022-08-22T13:30:23.724Z,29.72
2022-08-22T13:45:19.215Z,29.65
2022-08-22T14:00:19.643Z,30.42
2022-08-22T14:15:11.441Z,30.07
2022-08-22T14:30:09.623Z,29.58
2022-08-22T14:45:06.589Z,29.57
2022-08-22T14:59:59.071Z,28.92
2022-08-22T15:14:55.167Z,29.82
2022-08-22T15:29:51.648Z,29.87
2022-08-22T15:44:48.188Z,29.67
2022-08-22T15:59:48.328Z,29.58
2022-08-22T16:14:41.032Z,29
2022-08-22T16:29:37.707Z,28.5
2022-08-22T16:44:33.105Z,28.1
2022-08-22T16:59:28.957Z,27.61
2022-08-22T17:14:24.807Z,27.44
2022-08-22T17:29:20.971Z,27.25
2022-08-22T17:44:16.307Z,27.33
2022-08-22T17:59:12.799Z,26.94
2022-08-22T18:14:09.218Z,26.37
2022-08-22T18:29:05.565Z,25.82
2022-08-22T18:44:01.899Z,25.22
2022-08-22T18:58:58.921Z,24.94
2022-08-22T19:13:53.330Z,24.58
2022-08-22T19:28:49.680Z,24.26
2022-08-22T19:43:45.860Z,23.93
2022-08-22T19:58:41.820Z,23.19
2022-08-22T20:13:37.523Z,22.75
2022-08-22T20:28:33.709Z,22.5
2022-08-22T20:43:29.744Z,22.12
2022-08-22T20:58:25.877Z,21.71
2022-08-22T22:13:04.870Z,19.46
2022-08-22T22:28:01.561Z,19.33
2022-08-22T22:42:57.095Z,18.75
2022-08-22T22:57:58.872Z,18.52
2022-08-22T23:12:49.373Z,18.17
2022-08-22T23:27:45.357Z,17.74
2022-08-22T23:42:40.654Z,17.19
2022-08-22T23:57:36.901Z,17.21
